createdAt,value
2023-04-03T00:00:43.600Z,5.72
2023-04-03T00:02:48.580Z,5.69
2023-04-03T00:04:52.235Z,5.52
2023-04-03T00:06:56.973Z,5.68
2023-04-03T00:09:00.657Z,5.65
2023-04-03T00:11:05.748Z,5.34
2023-04-03T00:13:09.987Z,5.01
2023-04-03T00:15:13.405Z,4.76
2023-04-03T00:17:16.831Z,4.78
2023-04-03T00:19:20.498Z,4.78
2023-04-03T00:21:23.905Z,4.73
2023-04-03T00:23:29.368Z,4.87
2023-04-03T00:25:33.346Z,4.79
2023-04-03T00:27:38.837Z,5.03
2023-04-03T00:29:42.148Z,4.76
2023-04-03T00:31:46.300Z,5.04
2023-04-03T00:33:49.687Z,5.10
2023-04-03T00:35:53.298Z,5.15
2023-04-03T00:37:58.862Z,4.88
2023-04-03T00:40:05.105Z,4.88
2023-04-03T00:42:08.676Z,4.58
2023-04-03T00:44:45.349Z,4.79
2023-04-03T00:46:48.651Z,4.69
2023-04-03T00:48:52.483Z,4.43
2023-04-03T00:50:56.967Z,4.78
2023-04-03T00:53:00.906Z,4.72
2023-04-03T00:55:09.730Z,4.74
2023-04-03T00:57:14.131Z,4.84
2023-04-03T00:59:23.083Z,4.72
2023-04-03T01:01:30.686Z,4.70
2023-04-03T01:03:36.082Z,4.73
2023-04-03T01:05:42.007Z,4.79
2023-04-03T01:07:46.902Z,4.89
2023-04-03T01:09:54.681Z,4.91
2023-04-03T01:12:15.012Z,4.54
2023-04-03T01:14:18.489Z,4.82
2023-04-03T01:16:22.882Z,4.80
2023-04-03T01:18:27.223Z,4.85
2023-04-03T01:21:00.634Z,4.77
2023-04-03T01:23:14.449Z,4.96
2023-04-03T01:25:18.471Z,4.94
2023-04-03T01:27:23.327Z,4.88
2023-04-03T01:29:26.955Z,4.89
2023-04-03T01:31:35.812Z,4.97
2023-04-03T01:33:41.333Z,5.00
2023-04-03T01:35:45.053Z,5.04
2023-04-03T01:37:49.159Z,5.04
2023-04-03T01:39:52.612Z,5.01
2023-04-03T01:41:56.202Z,4.97
2023-04-03T01:44:10.337Z,4.96
2023-04-03T01:46:13.809Z,4.91
2023-04-03T01:48:18.278Z,4.88
2023-04-03T01:50:23.035Z,4.91
2023-04-03T01:52:26.675Z,4.94
2023-04-03T01:54:30.556Z,4.89
2023-04-03T01:56:33.966Z,4.86
2023-04-03T01:58:37.788Z,4.91
2023-04-03T02:00:41.390Z,4.90
2023-04-03T02:02:44.929Z,4.85
2023-04-03T02:04:48.507Z,4.80
2023-04-03T02:06:53.481Z,4.75
2023-04-03T02:08:56.836Z,4.70
2023-04-03T02:11:00.978Z,4.73
2023-04-03T02:13:04.937Z,4.78
2023-04-03T02:15:12.822Z,4.78
2023-04-03T02:17:16.208Z,4.75
2023-04-03T02:19:19.673Z,4.78
2023-04-03T02:21:23.051Z,4.82
2023-04-03T02:23:27.854Z,4.82
2023-04-03T02:25:32.444Z,4.82
2023-04-03T02:27:38.512Z,4.81
2023-04-03T02:29:42.094Z,4.82
2023-04-03T02:31:45.555Z,4.64
2023-04-03T02:33:51.067Z,4.76
2023-04-03T02:35:55.810Z,4.72
2023-04-03T02:37:59.775Z,4.69
2023-04-03T02:40:05.653Z,4.72
2023-04-03T02:42:09.609Z,4.75
2023-04-03T02:44:14.377Z,4.72
2023-04-03T02:46:18.251Z,4.78
2023-04-03T02:48:21.693Z,4.80
2023-04-03T02:50:25.118Z,4.79
2023-04-03T02:52:29.354Z,4.79
2023-04-03T02:54:34.897Z,4.75
2023-04-03T02:56:42.986Z,4.73
2023-04-03T02:58:46.817Z,4.73
2023-04-03T03:00:51.068Z,4.76
2023-04-03T03:02:54.674Z,4.66
2023-04-03T03:04:58.278Z,4.75
2023-04-03T03:07:02.053Z,4.77
2023-04-03T03:09:06.642Z,4.79
2023-04-03T03:11:10.959Z,4.78
2023-04-03T03:13:15.670Z,4.78
2023-04-03T03:15:20.351Z,4.56
2023-04-03T03:17:24.392Z,4.79
2023-04-03T03:19:28.445Z,4.73
2023-04-03T03:21:32.805Z,4.72
2023-04-03T03:23:37.874Z,4.71
2023-04-03T03:25:42.645Z,4.71
2023-04-03T03:27:46.760Z,4.66
2023-04-03T03:29:51.651Z,4.64
2023-04-03T03:31:55.038Z,4.60
2023-04-03T03:33:58.806Z,4.55
2023-04-03T03:36:02.633Z,4.52
2023-04-03T03:38:06.919Z,4.55
2023-04-03T03:40:14.001Z,4.59
2023-04-03T03:42:17.481Z,4.72
2023-04-03T03:44:20.855Z,4.71
2023-04-03T03:46:26.189Z,4.67
2023-04-03T03:48:31.248Z,4.65
2023-04-03T03:50:34.810Z,4.61
2023-04-03T03:52:38.444Z,4.58
2023-04-03T03:54:42.042Z,4.59
2023-04-03T03:56:46.123Z,4.58
2023-04-03T03:58:50.289Z,4.56
2023-04-03T04:00:54.351Z,4.51
2023-04-03T04:02:59.601Z,4.44
2023-04-03T04:05:04.871Z,4.47
2023-04-03T04:07:08.289Z,4.50
2023-04-03T04:09:12.988Z,4.54
2023-04-03T04:11:16.598Z,4.57
2023-04-03T04:13:21.449Z,4.29
2023-04-03T04:15:26.496Z,4.56
2023-04-03T04:17:30.852Z,4.51
2023-04-03T04:19:37.294Z,4.46
2023-04-03T04:21:42.356Z,4.48
2023-04-03T04:23:45.829Z,4.51
2023-04-03T04:25:53.478Z,4.52
2023-04-03T04:27:58.632Z,4.55
2023-04-03T04:30:02.356Z,4.54
2023-04-03T04:32:06.096Z,4.51
2023-04-03T04:34:09.749Z,4.42
2023-04-03T04:36:16.528Z,4.14
2023-04-03T04:38:22.395Z,4.45
2023-04-03T04:40:28.352Z,4.43
2023-04-03T04:42:31.714Z,4.43
2023-04-03T04:44:35.753Z,4.42
2023-04-03T04:46:39.524Z,4.10
2023-04-03T04:48:44.341Z,4.29
2023-04-03T04:50:48.458Z,4.35
2023-04-03T04:52:53.433Z,4.33
2023-04-03T04:54:57.141Z,4.36
2023-04-03T04:57:00.632Z,4.31
2023-04-03T04:59:05.775Z,4.26
2023-04-03T05:01:13.009Z,4.33
2023-04-03T05:03:30.849Z,4.28
2023-04-03T05:05:35.300Z,4.30
2023-04-03T05:07:39.534Z,4.30
2023-04-03T05:09:44.844Z,4.28
2023-04-03T05:11:49.931Z,4.30
2023-04-03T05:13:56.051Z,4.26
2023-04-03T05:16:02.017Z,4.28
2023-04-03T05:18:06.047Z,4.26
2023-04-03T05:20:10.479Z,4.30
2023-04-03T05:22:17.109Z,4.31
2023-04-03T05:24:22.135Z,4.26
2023-04-03T05:26:27.488Z,4.26
2023-04-03T05:28:31.301Z,4.21
2023-04-03T05:30:35.070Z,4.38
2023-04-03T05:32:41.052Z,4.42
2023-04-03T05:34:52.646Z,4.37
2023-04-03T05:36:56.856Z,4.35
2023-04-03T05:39:01.473Z,4.38
2023-04-03T05:41:05.326Z,4.37
2023-04-03T05:43:10.638Z,4.43
2023-04-03T05:45:17.167Z,4.43
2023-04-03T05:47:22.274Z,4.36
2023-04-03T05:49:25.962Z,4.43
2023-04-03T05:51:32.537Z,4.44
2023-04-03T05:53:41.902Z,4.32
2023-04-03T05:55:45.267Z,4.15
2023-04-03T05:57:48.924Z,4.07
2023-04-03T05:59:54.378Z,4.04
2023-04-03T06:01:58.782Z,4.12
2023-04-03T06:04:02.543Z,4.15
2023-04-03T06:06:07.753Z,4.03
2023-04-03T06:08:11.290Z,4.08
2023-04-03T06:10:14.969Z,4.17
2023-04-03T06:12:18.307Z,4.23
2023-04-03T06:14:21.843Z,4.16
2023-04-03T06:16:26.655Z,4.43
2023-04-03T06:18:30.065Z,4.21
2023-04-03T06:20:33.738Z,4.31
2023-04-03T06:22:37.684Z,4.38
2023-04-03T06:24:41.666Z,4.52
2023-04-03T06:26:45.313Z,4.56
2023-04-03T06:28:48.781Z,4.66
2023-04-03T06:30:52.684Z,4.65
2023-04-03T06:32:57.624Z,5.14
2023-04-03T06:35:01.204Z,5.82
2023-04-03T06:37:04.601Z,7.11
2023-04-03T06:39:08.402Z,8.32
2023-04-03T06:41:12.645Z,8.73
2023-04-03T06:43:16.003Z,8.15
2023-04-03T06:45:19.410Z,7.55
2023-04-03T06:47:25.063Z,7.14
2023-04-03T06:49:29.927Z,6.91
2023-04-03T06:51:33.394Z,6.70
2023-04-03T06:53:36.731Z,6.41
2023-04-03T06:55:40.961Z,6.24
2023-04-03T06:57:44.596Z,6.23
2023-04-03T06:59:47.981Z,6.14
2023-04-03T07:01:52.057Z,6.04
2023-04-03T07:03:55.737Z,5.96
2023-04-03T07:06:00.517Z,5.64
2023-04-03T07:08:05.322Z,5.85
2023-04-03T07:10:10.577Z,5.85
2023-04-03T07:12:17.951Z,5.77
2023-04-03T07:14:22.122Z,5.05
2023-04-03T07:16:26.148Z,5.77
2023-04-03T07:18:29.975Z,5.51
2023-04-03T07:20:33.701Z,5.54
2023-04-03T07:22:38.765Z,5.60
2023-04-03T07:24:43.004Z,5.67
2023-04-03T07:26:47.097Z,5.60
2023-04-03T07:28:51.375Z,6.15
2023-04-03T07:31:01.137Z,6.24
2023-04-03T07:33:04.975Z,6.19
2023-04-03T07:35:09.027Z,6.07
2023-04-03T07:37:13.741Z,5.99
2023-04-03T07:39:18.516Z,5.97
2023-04-03T07:41:23.878Z,5.89
2023-04-03T07:43:27.317Z,5.81
2023-04-03T07:45:31.094Z,5.85
2023-04-03T07:47:36.082Z,5.60
2023-04-03T07:49:41.451Z,6.00
2023-04-03T07:51:44.999Z,5.87
2023-04-03T07:53:49.493Z,5.84
2023-04-03T07:55:56.543Z,5.66
2023-04-03T07:58:00.287Z,5.57
2023-04-03T08:00:04.413Z,5.64
2023-04-03T08:02:18.445Z,5.83
2023-04-03T08:04:21.891Z,6.00
2023-04-03T08:06:42.066Z,6.13
2023-04-03T08:08:49.610Z,6.21
2023-04-03T08:10:55.596Z,6.20
2023-04-03T08:12:59.045Z,6.11
2023-04-03T08:15:02.642Z,6.09
2023-04-03T08:17:06.356Z,6.15
2023-04-03T08:19:15.229Z,6.14
2023-04-03T08:21:26.302Z,6.11
2023-04-03T08:23:29.768Z,6.21
2023-04-03T08:25:33.049Z,6.37
2023-04-03T08:27:39.032Z,6.54
2023-04-03T08:29:42.370Z,6.64
2023-04-03T08:31:46.332Z,6.65
2023-04-03T08:33:50.205Z,6.70
2023-04-03T08:35:53.520Z,6.72
2023-04-03T08:37:57.422Z,6.75
2023-04-03T08:40:00.728Z,6.72
2023-04-03T08:42:14.447Z,6.69
2023-04-03T08:44:27.170Z,6.72
2023-04-03T08:46:42.352Z,6.63
2023-04-03T08:48:46.310Z,6.76
2023-04-03T08:50:53.051Z,6.74
2023-04-03T08:52:59.741Z,6.86
2023-04-03T08:55:05.670Z,6.59
2023-04-03T08:57:09.160Z,6.93
2023-04-03T08:59:27.785Z,6.58
2023-04-03T09:01:38.618Z,6.87
2023-04-03T09:03:43.422Z,7.22
2023-04-03T09:05:51.428Z,7.30
2023-04-03T09:08:02.578Z,7.15
2023-04-03T09:10:06.610Z,7.21
2023-04-03T09:12:19.137Z,7.21
2023-04-03T09:14:33.776Z,6.88
2023-04-03T09:16:49.874Z,7.41
2023-04-03T09:18:59.302Z,7.19
2023-04-03T09:21:10.000Z,7.57
2023-04-03T09:23:24.774Z,7.66
2023-04-03T09:25:32.178Z,7.58
2023-04-03T09:27:35.673Z,7.53
2023-04-03T09:29:43.632Z,7.70
2023-04-03T09:31:51.079Z,7.82
2023-04-03T09:33:58.316Z,7.88
2023-04-03T09:36:01.983Z,7.94
2023-04-03T09:38:18.153Z,7.82
2023-04-03T09:40:39.410Z,7.80
2023-04-03T09:42:46.383Z,7.79
2023-04-03T09:44:57.233Z,7.86
2023-04-03T09:47:19.275Z,7.88
2023-04-03T09:49:22.935Z,7.90
2023-04-03T09:51:29.440Z,8.06
2023-04-03T09:53:37.557Z,8.20
2023-04-03T09:55:45.797Z,8.36
2023-04-03T09:57:51.511Z,8.41
2023-04-03T10:00:00.320Z,8.54
2023-04-03T10:02:24.617Z,8.63
2023-04-03T10:04:38.648Z,8.85
2023-04-03T10:06:47.578Z,9.03
2023-04-03T10:09:01.932Z,9.06
2023-04-03T10:11:11.977Z,8.99
2023-04-03T10:13:21.062Z,9.12
2023-04-03T10:15:25.075Z,9.18
2023-04-03T10:17:52.880Z,9.42
2023-04-03T10:20:00.654Z,9.45
2023-04-03T10:22:10.727Z,9.50
2023-04-03T10:24:20.318Z,9.36
2023-04-03T10:26:35.769Z,9.34
2023-04-03T10:28:46.857Z,9.34
2023-04-03T10:30:56.435Z,9.44
2023-04-03T10:33:14.690Z,9.31
2023-04-03T10:35:27.233Z,9.28
2023-04-03T10:37:37.689Z,9.37
2023-04-03T10:39:50.039Z,9.40
2023-04-03T10:42:15.650Z,9.51
2023-04-03T10:44:31.665Z,9.70
2023-04-03T10:46:39.784Z,9.73
2023-04-03T10:48:58.657Z,10.34
2023-04-03T10:51:08.347Z,10.56
2023-04-03T10:53:21.042Z,10.70
2023-04-03T10:55:33.626Z,10.52
2023-04-03T10:57:37.050Z,10.58
2023-04-03T10:59:45.677Z,10.73
2023-04-03T11:01:53.785Z,10.70
2023-04-03T11:04:00.281Z,10.43
2023-04-03T11:06:09.739Z,10.61
2023-04-03T11:08:21.981Z,10.70
2023-04-03T11:10:33.462Z,10.85
2023-04-03T11:12:44.199Z,10.57
2023-04-03T11:14:52.343Z,10.97
2023-04-03T11:17:11.053Z,11.15
2023-04-03T11:19:22.706Z,11.14
2023-04-03T11:21:31.585Z,11.20
2023-04-03T11:23:49.061Z,11.00
2023-04-03T11:25:56.901Z,10.72
2023-04-03T11:28:02.791Z,11.33
2023-04-03T11:30:12.032Z,11.34
2023-04-03T11:32:48.554Z,11.29
2023-04-03T11:34:57.611Z,10.82
2023-04-03T11:37:02.739Z,11.08
2023-04-03T11:39:17.909Z,11.56
2023-04-03T11:41:28.432Z,11.74
2023-04-03T11:43:33.894Z,11.73
2023-04-03T11:45:40.607Z,11.81
2023-04-03T11:47:49.235Z,11.98
2023-04-03T11:49:57.679Z,11.90
2023-04-03T11:52:01.440Z,11.83
2023-04-03T11:54:44.474Z,11.62
2023-04-03T11:56:48.806Z,11.43
2023-04-03T11:59:24.258Z,10.90
2023-04-03T12:01:49.261Z,11.49
2023-04-03T12:04:10.014Z,11.93
2023-04-03T12:06:57.421Z,11.93
2023-04-03T12:09:02.441Z,11.81
2023-04-03T12:11:28.003Z,11.68
2023-04-03T12:13:31.392Z,12.00
2023-04-03T12:15:52.322Z,12.13
2023-04-03T12:17:56.146Z,11.64
2023-04-03T12:19:59.473Z,11.52
2023-04-03T12:22:17.881Z,11.74
2023-04-03T12:24:31.535Z,12.02
2023-04-03T12:26:48.117Z,12.02
2023-04-03T12:28:54.583Z,12.05
2023-04-03T12:30:58.601Z,11.92
2023-04-03T12:33:25.911Z,12.44
2023-04-03T12:35:32.523Z,12.98
2023-04-03T12:38:34.507Z,13.49
2023-04-03T12:40:44.956Z,13.54
2023-04-03T12:43:22.809Z,12.67
2023-04-03T12:45:28.122Z,13.52
2023-04-03T12:47:37.193Z,13.65
2023-04-03T12:49:43.456Z,13.40
2023-04-03T12:51:49.106Z,13.50
2023-04-03T12:53:57.441Z,13.08
2023-04-03T12:56:23.124Z,12.78
2023-04-03T12:58:28.548Z,12.76
2023-04-03T13:00:39.806Z,13.01
2023-04-03T13:02:47.192Z,13.06
2023-04-03T13:04:51.191Z,13.25
2023-04-03T13:06:54.774Z,13.64
2023-04-03T13:09:01.137Z,13.87
2023-04-03T13:11:10.823Z,14.06
2023-04-03T13:13:17.766Z,13.99
2023-04-03T13:15:23.576Z,13.99
2023-04-03T13:17:28.639Z,14.35
2023-04-03T13:19:32.785Z,13.97
2023-04-03T13:21:37.168Z,13.71
2023-04-03T13:23:44.568Z,13.48
2023-04-03T13:25:49.349Z,13.46
2023-04-03T13:28:00.350Z,13.28
2023-04-03T13:30:29.095Z,13.53
2023-04-03T13:32:34.447Z,13.41
2023-04-03T13:34:40.230Z,13.49
2023-04-03T13:36:46.801Z,13.58
2023-04-03T13:39:00.940Z,14.00
2023-04-03T13:41:22.980Z,14.65
2023-04-03T13:43:28.752Z,14.98
2023-04-03T13:45:34.980Z,15.30
2023-04-03T13:47:42.028Z,14.67
2023-04-03T13:49:47.853Z,14.34
2023-04-03T13:52:06.037Z,14.35
2023-04-03T13:54:20.740Z,15.05
2023-04-03T13:56:33.397Z,15.10
2023-04-03T13:58:38.649Z,14.87
2023-04-03T14:00:53.072Z,14.51
2023-04-03T14:02:58.534Z,14.39
2023-04-03T14:05:04.377Z,14.13
2023-04-03T14:07:07.773Z,13.80
2023-04-03T14:09:11.211Z,13.86
2023-04-03T14:11:17.203Z,13.90
2023-04-03T14:13:22.464Z,13.90
2023-04-03T14:15:29.760Z,14.38
2023-04-03T14:17:34.540Z,15.27
2023-04-03T14:19:38.189Z,15.52
2023-04-03T14:21:41.580Z,15.21
2023-04-03T14:23:45.183Z,15.92
2023-04-03T14:25:48.641Z,16.00
2023-04-03T14:27:54.723Z,16.08
2023-04-03T14:30:00.168Z,15.27
2023-04-03T14:32:14.417Z,15.07
2023-04-03T14:34:19.602Z,15.69
2023-04-03T14:36:26.280Z,15.70
2023-04-03T14:38:32.772Z,15.20
2023-04-03T14:40:36.539Z,14.52
2023-04-03T14:42:40.460Z,14.06
2023-04-03T14:44:43.807Z,14.02
2023-04-03T14:46:56.184Z,13.86
2023-04-03T14:49:01.328Z,14.36
2023-04-03T14:51:06.399Z,14.86
2023-04-03T14:53:12.706Z,15.22
2023-04-03T14:55:17.909Z,15.47
2023-04-03T14:57:21.433Z,15.40
2023-04-03T14:59:25.498Z,15.79
2023-04-03T15:01:30.310Z,16.25
2023-04-03T15:03:34.459Z,15.79
2023-04-03T15:05:38.616Z,15.27
2023-04-03T15:07:45.328Z,15.27
2023-04-03T15:09:48.771Z,15.82
2023-04-03T15:11:54.509Z,16.31
2023-04-03T15:13:57.941Z,15.75
2023-04-03T15:16:01.464Z,15.28
2023-04-03T15:18:05.810Z,15.11
2023-04-03T15:20:15.008Z,15.41
2023-04-03T15:22:19.813Z,15.60
2023-04-03T15:24:25.224Z,15.42
2023-04-03T15:26:28.672Z,15.59
2023-04-03T15:28:36.115Z,14.94
2023-04-03T15:30:41.565Z,14.95
2023-04-03T15:32:45.291Z,15.53
2023-04-03T15:34:48.665Z,15.75
2023-04-03T15:36:53.509Z,15.79
2023-04-03T15:38:57.161Z,16.10
2023-04-03T15:41:02.075Z,16.31
2023-04-03T15:43:06.787Z,16.21
2023-04-03T15:45:11.729Z,16.25
2023-04-03T15:47:16.073Z,15.98
2023-04-03T15:49:20.716Z,15.10
2023-04-03T15:51:24.145Z,14.82
2023-04-03T15:53:27.698Z,15.06
2023-04-03T15:55:33.740Z,15.48
2023-04-03T15:59:46.847Z,14.58
2023-04-03T16:01:51.474Z,14.86
2023-04-03T16:03:55.154Z,15.40
2023-04-03T16:05:58.657Z,15.33
2023-04-03T16:08:02.483Z,15.49
2023-04-03T16:10:07.044Z,15.52
2023-04-03T16:12:10.846Z,15.84
2023-04-03T16:14:15.624Z,16.15
2023-04-03T16:16:19.116Z,16.09
2023-04-03T16:18:23.050Z,16.22
2023-04-03T16:20:27.100Z,15.78
2023-04-03T16:22:31.384Z,15.36
2023-04-03T16:24:36.569Z,15.72
2023-04-03T16:26:40.007Z,16.00
2023-04-03T16:28:43.415Z,15.45
2023-04-03T16:30:50.123Z,15.87
2023-04-03T16:32:54.536Z,16.56
2023-04-03T16:34:58.898Z,16.39
2023-04-03T16:37:02.474Z,16.53
2023-04-03T16:39:05.982Z,16.27
2023-04-03T16:41:09.316Z,15.70
2023-04-03T16:43:12.665Z,15.40
2023-04-03T16:45:16.314Z,15.20
2023-04-03T16:47:21.227Z,15.33
2023-04-03T16:49:24.620Z,15.26
2023-04-03T16:51:28.015Z,15.34
2023-04-03T16:53:31.517Z,15.23
2023-04-03T16:55:34.898Z,14.32
2023-04-03T16:57:38.430Z,14.75
2023-04-03T16:59:41.989Z,14.48
2023-04-03T17:01:45.762Z,14.09
2023-04-03T17:03:51.037Z,13.41
2023-04-03T17:05:54.837Z,13.14
2023-04-03T17:07:58.534Z,13.03
2023-04-03T17:10:02.229Z,12.91
2023-04-03T17:12:05.990Z,12.80
2023-04-03T17:14:09.627Z,12.59
2023-04-03T17:16:16.607Z,12.45
2023-04-03T17:18:20.408Z,12.25
2023-04-03T17:20:25.553Z,12.05
2023-04-03T17:22:30.068Z,12.58
2023-04-03T17:24:34.541Z,12.58
2023-04-03T17:26:39.698Z,12.55
2023-04-03T17:28:45.443Z,12.58
2023-04-03T17:30:50.021Z,12.46
2023-04-03T17:32:53.538Z,12.35
2023-04-03T17:34:57.188Z,12.23
2023-04-03T17:37:02.164Z,11.88
2023-04-03T17:39:06.031Z,11.83
2023-04-03T17:41:10.127Z,11.93
2023-04-03T17:43:13.471Z,11.86
2023-04-03T17:45:17.109Z,11.89
2023-04-03T17:47:20.673Z,12.01
2023-04-03T17:49:25.138Z,12.03
2023-04-03T17:51:34.179Z,12.01
2023-04-03T17:53:39.046Z,11.94
2023-04-03T17:55:42.521Z,11.84
2023-04-03T17:57:45.996Z,11.30
2023-04-03T17:59:49.546Z,11.23
2023-04-03T18:01:53.395Z,11.55
2023-04-03T18:03:58.637Z,11.59
2023-04-03T18:06:04.198Z,11.36
2023-04-03T18:08:08.797Z,11.44
2023-04-03T18:10:14.801Z,11.39
2023-04-03T18:12:18.146Z,11.21
2023-04-03T18:14:24.933Z,11.25
2023-04-03T18:16:28.520Z,11.10
2023-04-03T18:18:32.026Z,11.15
2023-04-03T18:20:35.411Z,11.18
2023-04-03T18:22:38.851Z,11.19
2023-04-03T18:24:43.530Z,11.26
2023-04-03T18:26:51.997Z,11.25
2023-04-03T18:28:59.458Z,11.31
2023-04-03T18:31:04.046Z,11.09
2023-04-03T18:33:07.517Z,11.22
2023-04-03T18:35:11.518Z,11.16
2023-04-03T18:37:16.464Z,11.08
2023-04-03T18:39:19.996Z,11.05
2023-04-03T18:41:26.861Z,11.05
2023-04-03T18:43:31.843Z,11.04
2023-04-03T18:45:35.620Z,10.99
2023-04-03T18:47:39.358Z,10.95
2023-04-03T18:49:43.761Z,10.89
2023-04-03T18:51:47.519Z,10.89
2023-04-03T18:53:50.833Z,10.87
2023-04-03T18:55:54.174Z,10.80
2023-04-03T18:57:58.134Z,10.75
2023-04-03T19:00:04.586Z,10.70
2023-04-03T19:02:09.008Z,10.72
2023-04-03T19:04:12.592Z,10.47
2023-04-03T19:06:16.273Z,10.66
2023-04-03T19:08:19.880Z,10.58
2023-04-03T19:10:23.611Z,10.37
2023-04-03T19:12:26.984Z,10.57
2023-04-03T19:14:30.501Z,10.58
2023-04-03T19:16:35.318Z,10.41
2023-04-03T19:18:38.685Z,10.30
2023-04-03T19:20:42.140Z,10.03
2023-04-03T19:22:45.537Z,10.27
2023-04-03T19:24:48.937Z,10.27
2023-04-03T19:26:52.459Z,10.25
2023-04-03T19:28:55.922Z,10.20
2023-04-03T19:31:01.185Z,9.97
2023-04-03T19:33:06.513Z,10.14
2023-04-03T19:35:11.330Z,10.01
2023-04-03T19:37:14.921Z,9.94
2023-04-03T19:39:18.273Z,9.97
2023-04-03T19:41:24.901Z,9.93
2023-04-03T19:43:29.257Z,9.86
2023-04-03T19:45:33.226Z,9.83
2023-04-03T19:47:37.404Z,9.83
2023-04-03T19:49:42.527Z,9.86
2023-04-03T19:51:45.878Z,9.82
2023-04-03T19:53:49.483Z,9.84
2023-04-03T19:55:52.838Z,9.82
2023-04-03T19:57:56.203Z,9.87
2023-04-03T19:59:59.529Z,9.87
2023-04-03T20:02:02.906Z,9.81
2023-04-03T20:04:06.533Z,9.81
2023-04-03T20:06:12.459Z,9.82
2023-04-03T20:08:16.054Z,9.79
2023-04-03T20:10:19.504Z,9.74
2023-04-03T20:12:22.865Z,9.71
2023-04-03T20:14:27.352Z,9.66
2023-04-03T20:16:31.131Z,9.61
2023-04-03T20:18:35.049Z,9.55
2023-04-03T20:20:42.199Z,9.51
2023-04-03T20:22:47.835Z,9.47
2023-04-03T20:24:51.197Z,9.44
2023-04-03T20:26:54.520Z,9.19
2023-04-03T20:28:59.360Z,9.18
2023-04-03T20:31:03.090Z,8.90
2023-04-03T20:33:06.885Z,9.09
2023-04-03T20:35:10.499Z,9.16
2023-04-03T20:37:22.253Z,9.16
2023-04-03T20:39:28.267Z,9.07
2023-04-03T20:41:34.561Z,8.75
2023-04-03T20:43:38.339Z,8.71
2023-04-03T20:45:41.664Z,8.66
2023-04-03T20:47:45.481Z,8.58
2023-04-03T20:49:48.938Z,8.62
2023-04-03T20:51:52.917Z,8.43
2023-04-03T20:53:56.711Z,8.37
2023-04-03T20:56:03.745Z,8.33
2023-04-03T20:58:07.645Z,8.32
2023-04-03T21:00:13.641Z,8.29
2023-04-03T21:02:17.485Z,8.37
2023-04-03T21:04:25.293Z,8.10
2023-04-03T21:07:05.911Z,8.19
2023-04-03T21:09:46.895Z,7.99
2023-04-03T21:12:27.985Z,8.04
2023-04-03T21:15:08.794Z,8.11
2023-04-03T21:17:11.842Z,8.12
2023-04-03T21:19:16.696Z,8.13
2023-04-03T21:21:23.097Z,8.24
2023-04-03T21:23:28.278Z,8.32
2023-04-03T21:25:31.767Z,8.15
2023-04-03T21:27:35.194Z,8.31
2023-04-03T21:29:38.703Z,7.99
2023-04-03T21:31:50.050Z,7.96
2023-04-03T21:33:53.592Z,8.34
2023-04-03T21:35:59.923Z,8.37
2023-04-03T21:38:03.607Z,8.37
2023-04-03T21:40:08.411Z,8.33
2023-04-03T21:42:11.788Z,8.34
2023-04-03T21:44:15.513Z,8.31
2023-04-03T21:46:20.553Z,8.30
2023-04-03T21:48:24.274Z,8.24
2023-04-03T21:50:27.937Z,8.18
2023-04-03T21:52:32.735Z,8.17
2023-04-03T21:54:36.536Z,8.20
2023-04-03T21:56:39.865Z,8.24
2023-04-03T21:58:43.211Z,8.24
2023-04-03T22:00:46.785Z,8.18
2023-04-03T22:02:55.057Z,8.15
2023-04-03T22:05:04.145Z,8.10
2023-04-03T22:07:07.532Z,8.05
2023-04-03T22:09:12.395Z,8.04
2023-04-03T22:11:17.103Z,8.04
2023-04-03T22:13:20.575Z,8.02
2023-04-03T22:15:24.026Z,7.98
2023-04-03T22:17:31.144Z,8.00
2023-04-03T22:19:35.704Z,7.96
2023-04-03T22:21:39.079Z,7.94
2023-04-03T22:23:42.443Z,7.74
2023-04-03T22:25:58.314Z,7.88
2023-04-03T22:28:01.676Z,7.82
2023-04-03T22:30:05.825Z,7.84
2023-04-03T22:32:09.152Z,7.78
2023-04-03T22:34:12.483Z,7.75
2023-04-03T22:36:16.041Z,7.74
2023-04-03T22:38:19.427Z,7.70
2023-04-03T22:40:22.823Z,7.69
2023-04-03T22:42:27.586Z,7.67
2023-04-03T22:44:36.282Z,7.59
2023-04-03T22:46:40.139Z,7.51
2023-04-03T22:48:45.203Z,7.35
2023-04-03T22:50:48.676Z,7.04
2023-04-03T22:52:52.076Z,6.89
2023-04-03T22:54:57.984Z,6.97
2023-04-03T22:57:05.074Z,7.06
2023-04-03T22:59:09.863Z,7.07
2023-04-03T23:01:14.927Z,6.83
2023-04-03T23:03:19.188Z,6.50
2023-04-03T23:05:23.212Z,6.37
2023-04-03T23:07:26.505Z,6.48
2023-04-03T23:09:29.830Z,6.56
2023-04-03T23:11:33.104Z,6.69
2023-04-03T23:13:36.751Z,6.33
2023-04-03T23:15:41.675Z,6.67
2023-04-03T23:17:45.474Z,6.66
2023-04-03T23:19:48.774Z,6.68
2023-04-03T23:21:52.403Z,6.72
2023-04-03T23:23:55.765Z,6.77
2023-04-03T23:26:01.280Z,6.82
2023-04-03T23:28:04.692Z,6.67
2023-04-03T23:30:09.800Z,6.80
2023-04-03T23:32:15.490Z,6.70
2023-04-03T23:34:18.889Z,6.81
2023-04-03T23:36:22.310Z,6.82
2023-04-03T23:38:25.916Z,6.77
2023-04-03T23:40:29.266Z,6.80
2023-04-03T23:42:32.645Z,6.76
2023-04-03T23:44:36.296Z,6.45
2023-04-03T23:46:39.729Z,6.69
2023-04-03T23:48:44.558Z,6.67
2023-04-03T23:50:47.924Z,6.65
2023-04-03T23:52:51.854Z,6.68
2023-04-03T23:54:55.170Z,6.71
2023-04-03T23:56:59.767Z,6.69
2023-04-03T23:59:03.174Z,6.67
